createdAt,value
2023-04-11T00:02:05.178Z,98989.20
2023-04-11T00:05:03.442Z,98975.00
2023-04-11T00:08:01.319Z,98973.20
2023-04-11T00:10:58.804Z,98969.20
2023-04-11T00:13:57.907Z,98967.40
2023-04-11T00:16:57.357Z,98959.60
2023-04-11T00:19:56.156Z,98959.60
2023-04-11T00:22:54.413Z,98952.00
2023-04-11T00:25:51.892Z,98951.20
2023-04-11T00:28:49.538Z,98942.00
2023-04-11T00:31:46.987Z,98942.00
2023-04-11T00:34:44.632Z,98945.00
2023-04-11T00:37:44.737Z,98947.00
2023-04-11T00:40:42.172Z,98945.80
2023-04-11T00:43:40.059Z,98948.40
2023-04-11T00:46:37.528Z,98943.80
2023-04-11T00:49:35.261Z,98946.20
2023-04-11T00:52:32.740Z,98940.80
2023-04-11T00:55:30.428Z,98937.40
2023-04-11T00:58:27.935Z,98933.60
2023-04-11T01:01:25.609Z,98921.40
2023-04-11T01:04:24.130Z,98922.20
2023-04-11T01:07:21.699Z,98914.20
2023-04-11T01:10:22.291Z,98903.40
2023-04-11T01:13:19.732Z,98899.60
2023-04-11T01:16:21.881Z,98900.40
2023-04-11T01:19:19.522Z,98899.00
2023-04-11T01:22:18.286Z,98898.80
2023-04-11T01:25:15.712Z,98883.20
2023-04-11T01:28:13.446Z,98879.60
2023-04-11T01:31:10.908Z,98871.00
2023-04-11T01:34:13.171Z,98865.00
2023-04-11T01:37:11.847Z,98860.20
2023-04-11T01:40:09.610Z,98853.60
2023-04-11T01:43:09.012Z,98852.60
2023-04-11T01:46:06.466Z,98842.40
2023-04-11T01:49:04.178Z,98840.00
2023-04-11T01:52:01.871Z,98837.40
2023-04-11T01:54:59.358Z,98829.60
2023-04-11T01:57:57.142Z,98823.60
2023-04-11T02:00:54.587Z,98817.60
2023-04-11T02:03:52.392Z,98810.60
2023-04-11T02:06:50.232Z,98807.20
2023-04-11T02:09:47.667Z,98800.80
2023-04-11T02:12:45.443Z,98798.40
2023-04-11T02:15:42.974Z,98804.20
2023-04-11T02:18:40.612Z,98801.80
2023-04-11T02:21:38.000Z,98801.20
2023-04-11T02:24:35.817Z,98799.20
2023-04-11T02:27:33.569Z,98784.60
2023-04-11T02:30:30.999Z,98762.20
2023-04-11T02:33:28.563Z,98762.60
2023-04-11T02:36:26.922Z,98756.80
2023-04-11T02:39:25.274Z,98746.60
2023-04-11T02:42:22.967Z,98749.40
2023-04-11T02:45:20.534Z,98745.60
2023-04-11T02:48:18.275Z,98746.80
2023-04-11T02:51:15.770Z,98739.00
2023-04-11T02:54:13.477Z,98740.00
2023-04-11T02:57:10.959Z,98734.60
2023-04-11T03:00:10.885Z,98733.00
2023-04-11T03:03:08.686Z,98731.40
2023-04-11T03:06:06.936Z,98732.00
2023-04-11T03:09:05.133Z,98732.20
2023-04-11T03:12:02.591Z,98729.40
2023-04-11T03:15:00.422Z,98739.00
2023-04-11T03:17:58.186Z,98735.60
2023-04-11T03:20:56.237Z,98728.60
2023-04-11T03:23:54.035Z,98724.60
2023-04-11T03:26:51.518Z,98712.60
2023-04-11T03:29:49.143Z,98708.60
2023-04-11T03:32:46.600Z,98703.40
2023-04-11T03:35:44.401Z,98699.00
2023-04-11T03:38:41.832Z,98698.80
2023-04-11T03:41:39.592Z,98694.20
2023-04-11T03:44:37.286Z,98688.00
2023-04-11T03:47:34.797Z,98682.80
2023-04-11T03:50:32.378Z,98678.60
2023-04-11T03:53:29.809Z,98680.60
2023-04-11T03:56:27.601Z,98681.00
2023-04-11T03:59:25.318Z,98677.80
2023-04-11T04:02:22.901Z,98676.40
2023-04-11T04:05:20.709Z,98677.80
2023-04-11T04:08:18.194Z,98676.00
2023-04-11T04:11:15.878Z,98684.60
2023-04-11T04:14:13.402Z,98683.40
2023-04-11T04:17:11.186Z,98679.40
2023-04-11T04:20:11.108Z,98673.00
2023-04-11T04:23:08.798Z,98676.20
2023-04-11T04:26:06.626Z,98679.20
2023-04-11T04:29:05.681Z,98680.00
2023-04-11T04:32:03.542Z,98679.60
2023-04-11T04:35:01.904Z,98689.00
2023-04-11T04:38:06.513Z,98690.20
2023-04-11T04:41:06.527Z,98687.60
2023-04-11T04:44:05.577Z,98676.60
2023-04-11T04:47:03.322Z,98676.20
2023-04-11T04:50:00.813Z,98662.40
2023-04-11T04:52:58.703Z,98653.60
2023-04-11T04:55:56.111Z,98654.80
2023-04-11T04:58:53.765Z,98656.40
2023-04-11T05:01:52.031Z,98655.00
2023-04-11T05:04:50.488Z,98650.60
2023-04-11T05:07:48.766Z,98646.40
2023-04-11T05:10:46.247Z,98649.40
2023-04-11T05:13:44.514Z,98654.80
2023-04-11T05:16:41.997Z,98656.80
2023-04-11T05:19:39.754Z,98642.80
2023-04-11T05:22:38.154Z,98636.60
2023-04-11T05:25:35.856Z,98635.20
2023-04-11T05:28:33.698Z,98630.40
2023-04-11T05:31:31.185Z,98629.80
2023-04-11T05:34:28.864Z,98636.00
2023-04-11T05:37:26.416Z,98638.00
2023-04-11T05:40:24.050Z,98638.00
2023-04-11T05:43:21.520Z,98638.80
2023-04-11T05:46:19.208Z,98642.00
2023-04-11T05:49:16.872Z,98640.80
2023-04-11T05:52:14.556Z,98634.40
2023-04-11T05:55:12.653Z,98630.20
2023-04-11T05:58:10.228Z,98626.20
2023-04-11T06:01:12.667Z,98618.60
2023-04-11T06:04:10.331Z,98614.80
2023-04-11T06:07:09.884Z,98613.60
2023-04-11T06:10:07.315Z,98614.40
2023-04-11T06:13:04.892Z,98613.00
2023-04-11T06:16:02.567Z,98613.60
2023-04-11T06:19:00.160Z,98616.60
2023-04-11T06:21:57.839Z,98618.20
2023-04-11T06:24:55.310Z,98618.60
2023-04-11T06:27:52.990Z,98616.80
2023-04-11T06:30:50.511Z,98610.60
2023-04-11T06:33:48.143Z,98612.00
2023-04-11T06:36:48.271Z,98605.20
2023-04-11T06:39:46.009Z,98592.80
2023-04-11T06:42:43.783Z,98589.40
2023-04-11T06:45:41.192Z,98580.40
2023-04-11T06:48:38.797Z,98566.40
2023-04-11T06:51:36.217Z,98569.80
2023-04-11T06:54:33.899Z,98572.20
2023-04-11T06:57:31.373Z,98570.20
2023-04-11T07:00:29.163Z,98577.00
2023-04-11T07:03:27.450Z,98575.40
2023-04-11T07:06:25.053Z,98569.60
2023-04-11T07:09:23.152Z,98557.60
2023-04-11T07:12:20.614Z,98562.20
2023-04-11T07:15:18.254Z,98559.20
2023-04-11T07:18:15.774Z,98552.20
2023-04-11T07:21:13.807Z,98570.40
2023-04-11T07:24:13.346Z,98555.80
2023-04-11T07:27:14.297Z,98565.80
2023-04-11T07:30:12.212Z,98555.40
2023-04-11T07:33:09.672Z,98553.20
2023-04-11T07:36:07.708Z,98563.00
2023-04-11T07:39:09.301Z,98560.60
2023-04-11T07:42:07.232Z,98556.60
2023-04-11T07:45:04.647Z,98554.80
2023-04-11T07:48:02.222Z,98550.00
2023-04-11T07:50:59.813Z,98552.80
2023-04-11T07:53:57.902Z,98551.00
2023-04-11T07:56:55.625Z,98550.20
2023-04-11T07:59:53.405Z,98554.20
2023-04-11T08:02:51.519Z,98555.20
2023-04-11T08:05:49.955Z,98560.00
2023-04-11T08:08:47.743Z,98560.20
2023-04-11T08:11:45.397Z,98558.80
2023-04-11T08:14:43.357Z,98555.60
2023-04-11T08:17:41.185Z,98555.00
2023-04-11T08:20:40.889Z,98546.60
2023-04-11T08:23:39.946Z,98550.80
2023-04-11T08:26:37.417Z,98552.80
2023-04-11T08:29:35.221Z,98539.20
2023-04-11T08:32:32.842Z,98544.60
2023-04-11T08:35:30.622Z,98548.80
2023-04-11T08:38:28.429Z,98538.20
2023-04-11T08:41:31.014Z,98535.80
2023-04-11T08:44:29.204Z,98535.40
2023-04-11T08:47:26.643Z,98526.20
2023-04-11T08:50:24.513Z,98528.00
2023-04-11T08:53:22.427Z,98521.60
2023-04-11T08:56:20.220Z,98524.40
2023-04-11T08:59:17.657Z,98523.40
2023-04-11T09:02:15.528Z,98517.60
2023-04-11T09:05:17.172Z,98521.20
2023-04-11T09:08:14.605Z,98513.80
2023-04-11T09:11:12.417Z,98509.00
2023-04-11T09:14:09.917Z,98501.80
2023-04-11T09:17:13.638Z,98509.40
2023-04-11T09:20:11.232Z,98512.00
2023-04-11T09:23:08.926Z,98506.00
2023-04-11T09:26:06.727Z,98502.20
2023-04-11T09:29:04.333Z,98495.80
2023-04-11T09:32:02.009Z,98503.60
2023-04-11T09:34:59.485Z,98505.80
2023-04-11T09:37:57.552Z,98504.40
2023-04-11T09:40:54.983Z,98502.00
2023-04-11T09:43:52.787Z,98503.00
2023-04-11T09:46:51.817Z,98500.80
2023-04-11T09:49:49.332Z,98502.80
2023-04-11T09:52:46.814Z,98500.80
2023-04-11T09:55:44.274Z,98496.20
2023-04-11T09:58:42.252Z,98498.80
2023-04-11T10:01:39.836Z,98494.40
2023-04-11T10:04:38.953Z,98489.80
2023-04-11T10:07:36.781Z,98483.00
2023-04-11T10:10:34.586Z,98483.80
2023-04-11T10:13:32.222Z,98482.20
2023-04-11T10:16:32.520Z,98483.60
2023-04-11T10:19:30.300Z,98468.00
2023-04-11T10:22:27.935Z,98447.60
2023-04-11T10:25:25.581Z,98445.80
2023-04-11T10:28:23.396Z,98453.20
2023-04-11T10:31:20.998Z,98464.00
2023-04-11T10:34:18.710Z,98464.00
2023-04-11T10:37:16.196Z,98473.20
2023-04-11T10:40:13.730Z,98479.60
2023-04-11T10:43:11.228Z,98487.20
2023-04-11T10:46:09.076Z,98496.60
2023-04-11T10:49:07.161Z,98489.40
2023-04-11T10:52:04.626Z,98487.80
2023-04-11T10:55:02.370Z,98480.20
2023-04-11T10:57:59.852Z,98477.80
2023-04-11T11:00:58.545Z,98489.80
2023-04-11T11:03:57.061Z,98485.40
2023-04-11T11:06:57.361Z,98479.60
2023-04-11T11:09:55.063Z,98479.00
2023-04-11T11:12:52.774Z,98475.20
2023-04-11T11:15:50.587Z,98473.80
2023-04-11T11:18:48.888Z,98472.20
2023-04-11T11:21:46.560Z,98476.80
2023-04-11T11:24:43.968Z,98478.20
2023-04-11T11:27:41.689Z,98483.80
2023-04-11T11:30:39.280Z,98488.40
2023-04-11T11:33:36.919Z,98498.60
2023-04-11T11:36:34.397Z,98503.60
2023-04-11T11:39:32.210Z,98507.60
2023-04-11T11:42:29.828Z,98513.20
2023-04-11T11:45:27.362Z,98516.40
2023-04-11T11:48:25.478Z,98509.00
2023-04-11T11:51:22.909Z,98507.00
2023-04-11T11:54:20.696Z,98505.00
2023-04-11T11:57:18.107Z,98505.00
2023-04-11T12:00:20.207Z,98503.00
2023-04-11T12:03:19.522Z,98502.00
2023-04-11T12:06:17.629Z,98501.00
2023-04-11T12:09:15.752Z,98497.60
2023-04-11T12:12:13.246Z,98489.80
2023-04-11T12:15:11.201Z,98489.20
2023-04-11T12:18:09.118Z,98489.60
2023-04-11T12:21:06.650Z,98489.80
2023-04-11T12:24:04.276Z,98476.40
2023-04-11T12:27:06.794Z,98486.40
2023-04-11T12:30:06.096Z,98491.20
2023-04-11T12:33:03.597Z,98504.20
2023-04-11T12:36:02.222Z,98501.20
2023-04-11T12:38:59.688Z,98494.00
2023-04-11T12:41:57.370Z,98494.80
2023-04-11T12:44:55.022Z,98483.00
2023-04-11T12:47:52.661Z,98485.00
2023-04-11T12:50:50.548Z,98482.20
2023-04-11T12:53:48.029Z,98472.20
2023-04-11T12:56:45.764Z,98472.80
2023-04-11T12:59:43.540Z,98464.60
2023-04-11T13:02:44.411Z,98462.40
2023-04-11T13:05:43.000Z,98459.40
2023-04-11T13:08:40.421Z,98466.20
2023-04-11T13:11:38.197Z,98469.20
2023-04-11T13:14:37.111Z,98475.80
2023-04-11T13:17:34.906Z,98482.20
2023-04-11T13:20:32.717Z,98498.80
2023-04-11T13:23:30.164Z,98508.60
2023-04-11T13:26:28.787Z,98519.60
2023-04-11T13:29:26.242Z,98522.00
2023-04-11T13:32:23.983Z,98534.00
2023-04-11T13:35:21.885Z,98529.60
2023-04-11T13:38:19.410Z,98548.20
2023-04-11T13:41:17.221Z,98513.20
2023-04-11T13:44:14.718Z,98549.00
2023-04-11T13:47:12.449Z,98540.60
2023-04-11T13:50:10.279Z,98536.60
2023-04-11T13:53:08.075Z,98538.20
2023-04-11T13:56:05.548Z,98545.20
2023-04-11T13:59:03.310Z,98561.40
2023-04-11T14:02:01.214Z,98567.80
2023-04-11T14:04:58.663Z,98574.60
2023-04-11T14:07:56.496Z,98574.20
2023-04-11T14:10:53.941Z,98553.00
2023-04-11T14:13:52.013Z,98551.20
2023-04-11T14:16:50.567Z,98548.20
2023-04-11T14:19:48.269Z,98541.60
2023-04-11T14:22:45.822Z,98522.80
2023-04-11T14:25:43.517Z,98513.60
2023-04-11T14:28:41.390Z,98496.40
2023-04-11T14:31:38.987Z,98493.80
2023-04-11T14:34:36.715Z,98492.40
2023-04-11T14:37:34.396Z,98490.20
2023-04-11T14:40:31.998Z,98486.20
2023-04-11T14:43:29.461Z,98484.20
2023-04-11T14:46:27.146Z,98487.80
2023-04-11T14:49:24.657Z,98483.40
2023-04-11T14:52:22.350Z,98490.40
2023-04-11T14:55:20.207Z,98490.40
2023-04-11T14:58:17.722Z,98490.20
2023-04-11T15:01:15.508Z,98479.00
2023-04-11T15:04:13.463Z,98479.40
2023-04-11T15:07:11.223Z,98476.80
2023-04-11T15:10:08.741Z,98476.80
2023-04-11T15:13:07.483Z,98470.80
2023-04-11T15:16:05.776Z,98468.60
2023-04-11T15:19:03.368Z,98467.80
2023-04-11T15:22:01.358Z,98475.40
2023-04-11T15:24:58.793Z,98474.20
2023-04-11T15:27:56.404Z,98466.40
2023-04-11T15:30:53.910Z,98473.00
2023-04-11T15:33:51.749Z,98472.20
2023-04-11T15:36:49.296Z,98479.40
2023-04-11T15:39:46.962Z,98483.80
2023-04-11T15:42:44.440Z,98474.20
2023-04-11T15:45:44.547Z,98476.20
2023-04-11T15:48:43.647Z,98478.00
2023-04-11T15:51:41.123Z,98487.00
2023-04-11T15:54:38.770Z,98488.00
2023-04-11T15:57:36.296Z,98492.40
2023-04-11T16:00:34.003Z,98474.40
2023-04-11T16:03:32.999Z,98476.20
2023-04-11T16:06:31.505Z,98479.60
2023-04-11T16:09:29.369Z,98479.00
2023-04-11T16:12:26.939Z,98474.80
2023-04-11T16:15:24.712Z,98476.00
2023-04-11T16:18:22.194Z,98481.20
2023-04-11T16:21:19.967Z,98487.40
2023-04-11T16:24:18.716Z,98489.40
2023-04-11T16:27:16.952Z,98489.20
2023-04-11T16:30:16.896Z,98474.80
2023-04-11T16:33:14.651Z,98477.80
2023-04-11T16:36:12.287Z,98483.40
2023-04-11T16:39:09.879Z,98485.40
2023-04-11T16:42:08.584Z,98476.20
2023-04-11T16:45:06.068Z,98472.20
2023-04-11T16:48:03.897Z,98466.00
2023-04-11T16:51:01.814Z,98460.80
2023-04-11T16:53:59.328Z,98450.60
2023-04-11T16:56:57.026Z,98456.80
2023-04-11T16:59:54.457Z,98451.60
2023-04-11T17:02:52.271Z,98456.60
2023-04-11T17:05:50.061Z,98459.00
2023-04-11T17:08:47.753Z,98459.80
2023-04-11T17:11:45.250Z,98455.20
2023-04-11T17:14:43.015Z,98464.00
2023-04-11T17:17:40.493Z,98479.20
2023-04-11T17:20:38.373Z,98468.40
2023-04-11T17:23:42.943Z,98469.60
2023-04-11T17:26:41.139Z,98478.40
2023-04-11T17:29:38.904Z,98484.80
2023-04-11T17:32:38.244Z,98495.80
2023-04-11T17:35:36.423Z,98508.40
2023-04-11T17:38:34.145Z,98519.60
2023-04-11T17:41:32.393Z,98564.00
2023-04-11T17:44:30.047Z,98605.80
2023-04-11T17:47:28.698Z,98624.40
2023-04-11T17:50:26.629Z,98640.40
2023-04-11T17:53:24.062Z,98624.80
2023-04-11T17:56:21.804Z,98636.20
2023-04-11T17:59:19.802Z,98630.20
2023-04-11T18:02:17.458Z,98619.80
2023-04-11T18:05:23.159Z,98604.80
2023-04-11T18:08:28.697Z,98597.20
2023-04-11T18:11:27.998Z,98595.00
2023-04-11T18:14:25.548Z,98603.80
2023-04-11T18:17:23.350Z,98596.80
2023-04-11T18:20:20.930Z,98599.00
2023-04-11T18:23:19.076Z,98606.40
2023-04-11T18:26:17.364Z,98608.80
2023-04-11T18:29:15.590Z,98613.80
2023-04-11T18:32:19.585Z,98617.20
2023-04-11T18:35:17.565Z,98620.40
2023-04-11T18:38:15.811Z,98635.40
2023-04-11T18:41:13.377Z,98628.40
2023-04-11T18:44:11.983Z,98628.40
2023-04-11T18:47:11.745Z,98631.00
2023-04-11T18:50:10.088Z,98633.20
2023-04-11T18:53:11.808Z,98636.60
2023-04-11T18:56:11.937Z,98643.40
2023-04-11T18:59:10.520Z,98640.80
2023-04-11T19:02:09.302Z,98642.60
2023-04-11T19:05:13.602Z,98649.00
2023-04-11T19:08:12.796Z,98648.40
2023-04-11T19:11:10.333Z,98641.00
2023-04-11T19:14:08.792Z,98641.20
2023-04-11T19:17:06.948Z,98635.40
2023-04-11T19:20:07.309Z,98630.60
2023-04-11T19:23:07.736Z,98630.20
2023-04-11T19:26:05.605Z,98627.40
2023-04-11T19:29:04.225Z,98631.80
2023-04-11T19:32:02.403Z,98629.00
2023-04-11T19:35:02.786Z,98621.80
2023-04-11T19:38:02.933Z,98621.40
2023-04-11T19:41:02.070Z,98620.60
2023-04-11T19:44:01.646Z,98621.80
2023-04-11T19:47:00.288Z,98621.40
2023-04-11T19:49:59.594Z,98632.20
2023-04-11T19:52:58.894Z,98632.20
2023-04-11T19:55:56.982Z,98642.40
2023-04-11T19:59:00.140Z,98632.60
2023-04-11T20:02:02.389Z,98642.20
2023-04-11T20:05:02.969Z,98639.60
2023-04-11T20:08:01.153Z,98640.80
2023-04-11T20:11:00.960Z,98642.60
2023-04-11T20:13:59.479Z,98647.40
2023-04-11T20:16:58.141Z,98640.40
2023-04-11T20:19:57.232Z,98642.40
2023-04-11T20:22:55.998Z,98644.60
2023-04-11T20:25:54.257Z,98642.40
2023-04-11T20:28:53.146Z,98646.40
2023-04-11T20:31:50.958Z,98652.20
2023-04-11T20:34:48.456Z,98654.60
2023-04-11T20:37:46.102Z,98649.00
2023-04-11T20:40:45.142Z,98648.00
2023-04-11T20:43:42.820Z,98650.60
2023-04-11T20:46:42.435Z,98654.60
2023-04-11T20:49:39.877Z,98657.20
2023-04-11T20:52:37.721Z,98649.80
2023-04-11T20:55:35.225Z,98656.00
2023-04-11T20:58:33.091Z,98654.20
2023-04-11T21:01:32.998Z,98649.80
2023-04-11T21:04:30.689Z,98656.40
2023-04-11T21:07:28.354Z,98655.40
2023-04-11T21:10:25.903Z,98648.20
2023-04-11T21:13:24.186Z,98653.20
2023-04-11T21:16:21.907Z,98652.80
2023-04-11T21:19:20.759Z,98656.20
2023-04-11T21:22:18.200Z,98655.40
2023-04-11T21:25:16.201Z,98656.60
2023-04-11T21:28:13.734Z,98657.00
2023-04-11T21:31:11.502Z,98658.60
2023-04-11T21:34:09.387Z,98654.60
2023-04-11T21:37:06.839Z,98656.00
2023-04-11T21:40:06.603Z,98654.40
2023-04-11T21:43:04.094Z,98652.80
2023-04-11T21:46:02.524Z,98652.20
2023-04-11T21:49:00.118Z,98647.40
2023-04-11T21:51:57.732Z,98642.60
2023-04-11T21:54:55.176Z,98646.80
2023-04-11T21:57:52.832Z,98651.80
2023-04-11T22:00:50.634Z,98662.40
2023-04-11T22:03:50.575Z,98655.40
2023-04-11T22:06:48.558Z,98657.80
2023-04-11T22:09:47.042Z,98661.80
2023-04-11T22:12:47.148Z,98657.00
2023-04-11T22:15:44.896Z,98663.20
2023-04-11T22:18:49.055Z,98670.20
2023-04-11T22:21:50.903Z,98666.40
2023-04-11T22:24:48.914Z,98662.40
2023-04-11T22:27:46.771Z,98655.40
2023-04-11T22:30:48.571Z,98659.80
2023-04-11T22:33:48.186Z,98649.60
2023-04-11T22:36:45.916Z,98642.80
2023-04-11T22:39:44.086Z,98638.80
2023-04-11T22:42:41.925Z,98637.40
2023-04-11T22:45:40.166Z,98643.60
2023-04-11T22:48:38.083Z,98647.80
2023-04-11T22:51:38.196Z,98649.00
2023-04-11T22:54:36.411Z,98638.00
2023-04-11T22:57:35.193Z,98642.80
2023-04-11T23:00:38.398Z,98648.00
2023-04-11T23:03:36.977Z,98644.40
2023-04-11T23:35:48.033Z,98618.20
2023-04-11T23:38:46.408Z,98614.20
2023-04-11T23:41:45.242Z,98610.00
2023-04-11T23:44:43.294Z,98606.00
2023-04-11T23:47:40.747Z,98608.80
2023-04-11T23:50:38.914Z,98601.00
2023-04-11T23:53:36.397Z,98603.60
2023-04-11T23:56:34.309Z,98599.40
2023-04-11T23:59:31.852Z,98596.80
